sensor_id;sensor_type;location;lat;lon;timestamp;P1;durP1;ratioP1;P2;durP2;ratioP2
72573;SDS011;60603;52.548;13.420;2024-01-06T00:00:10;42.00;;;19.67;;
72573;SDS011;60603;52.548;13.420;2024-01-06T00:02:57;45.40;;;17.90;;
72573;SDS011;60603;52.548;13.420;2024-01-06T00:05:24;49.45;;;21.02;;
72573;SDS011;60603;52.548;13.420;2024-01-06T00:07:51;43.72;;;17.90;;
72573;SDS011;60603;52.548;13.420;2024-01-06T00:10:18;44.28;;;20.00;;
72573;SDS011;60603;52.548;13.420;2024-01-06T00:12:44;39.13;;;18.70;;
72573;SDS011;60603;52.548;13.420;2024-01-06T00:15:12;50.40;;;20.10;;
72573;SDS011;60603;52.548;13.420;2024-01-06T00:17:38;43.63;;;19.88;;
72573;SDS011;60603;52.548;13.420;2024-01-06T00:20:06;50.47;;;20.17;;
72573;SDS011;60603;52.548;13.420;2024-01-06T00:22:33;44.25;;;17.65;;
72573;SDS011;60603;52.548;13.420;2024-01-06T00:25:00;43.80;;;18.48;;
72573;SDS011;60603;52.548;13.420;2024-01-06T00:27:27;41.08;;;17.25;;
72573;SDS011;60603;52.548;13.420;2024-01-06T00:29:54;40.40;;;19.38;;
72573;SDS011;60603;52.548;13.420;2024-01-06T00:32:21;38.72;;;18.00;;
72573;SDS011;60603;52.548;13.420;2024-01-06T00:34:51;46.58;;;18.80;;
72573;SDS011;60603;52.548;13.420;2024-01-06T00:37:17;43.65;;;18.70;;
72573;SDS011;60603;52.548;13.420;2024-01-06T00:39:44;42.50;;;18.52;;
72573;SDS011;60603;52.548;13.420;2024-01-06T00:42:11;40.40;;;17.80;;
72573;SDS011;60603;52.548;13.420;2024-01-06T00:44:38;43.60;;;18.85;;
72573;SDS011;60603;52.548;13.420;2024-01-06T00:47:05;43.20;;;17.55;;
72573;SDS011;60603;52.548;13.420;2024-01-06T00:49:32;42.15;;;17.70;;
72573;SDS011;60603;52.548;13.420;2024-01-06T00:51:59;42.28;;;19.77;;
72573;SDS011;60603;52.548;13.420;2024-01-06T00:54:26;42.45;;;17.60;;
72573;SDS011;60603;52.548;13.420;2024-01-06T00:56:53;39.42;;;17.00;;
72573;SDS011;60603;52.548;13.420;2024-01-06T00:59:23;41.58;;;17.33;;
72573;SDS011;60603;52.548;13.420;2024-01-06T01:01:50;40.08;;;16.80;;
72573;SDS011;60603;52.548;13.420;2024-01-06T01:04:17;31.08;;;14.52;;
72573;SDS011;60603;52.548;13.420;2024-01-06T01:06:44;36.75;;;17.70;;
72573;SDS011;60603;52.548;13.420;2024-01-06T01:09:11;43.55;;;17.52;;
72573;SDS011;60603;52.548;13.420;2024-01-06T01:11:40;43.22;;;18.70;;
72573;SDS011;60603;52.548;13.420;2024-01-06T01:14:08;39.38;;;17.70;;
72573;SDS011;60603;52.548;13.420;2024-01-06T01:16:34;39.50;;;16.85;;
72573;SDS011;60603;52.548;13.420;2024-01-06T01:19:01;39.22;;;19.20;;
72573;SDS011;60603;52.548;13.420;2024-01-06T01:21:28;43.00;;;18.63;;
72573;SDS011;60603;52.548;13.420;2024-01-06T01:23:56;41.67;;;17.42;;
72573;SDS011;60603;52.548;13.420;2024-01-06T01:26:22;33.15;;;14.75;;
72573;SDS011;60603;52.548;13.420;2024-01-06T01:28:49;40.80;;;17.00;;
72573;SDS011;60603;52.548;13.420;2024-01-06T01:31:16;36.58;;;17.45;;
72573;SDS011;60603;52.548;13.420;2024-01-06T01:33:43;42.50;;;16.65;;
72573;SDS011;60603;52.548;13.420;2024-01-06T01:36:10;38.97;;;17.02;;
72573;SDS011;60603;52.548;13.420;2024-01-06T01:38:37;39.17;;;18.27;;
72573;SDS011;60603;52.548;13.420;2024-01-06T01:41:04;38.72;;;17.52;;
72573;SDS011;60603;52.548;13.420;2024-01-06T01:43:31;33.85;;;15.55;;
72573;SDS011;60603;52.548;13.420;2024-01-06T01:45:58;37.53;;;17.05;;
72573;SDS011;60603;52.548;13.420;2024-01-06T01:48:25;33.40;;;15.05;;
72573;SDS011;60603;52.548;13.420;2024-01-06T01:50:55;28.90;;;14.65;;
72573;SDS011;60603;52.548;13.420;2024-01-06T01:53:23;41.88;;;17.92;;
72573;SDS011;60603;52.548;13.420;2024-01-06T01:55:50;35.47;;;16.33;;
72573;SDS011;60603;52.548;13.420;2024-01-06T01:58:17;41.30;;;18.25;;
72573;SDS011;60603;52.548;13.420;2024-01-06T02:00:44;37.17;;;15.73;;
72573;SDS011;60603;52.548;13.420;2024-01-06T02:03:11;35.55;;;16.92;;
72573;SDS011;60603;52.548;13.420;2024-01-06T02:05:40;37.75;;;17.88;;
72573;SDS011;60603;52.548;13.420;2024-01-06T02:08:07;42.42;;;17.20;;
72573;SDS011;60603;52.548;13.420;2024-01-06T02:10:34;38.63;;;17.35;;
72573;SDS011;60603;52.548;13.420;2024-01-06T02:13:09;37.15;;;17.35;;
72573;SDS011;60603;52.548;13.420;2024-01-06T02:15:36;43.05;;;16.80;;
72573;SDS011;60603;52.548;13.420;2024-01-06T02:18:04;39.50;;;17.45;;
72573;SDS011;60603;52.548;13.420;2024-01-06T02:20:31;37.22;;;17.02;;
72573;SDS011;60603;52.548;13.420;2024-01-06T02:22:58;35.85;;;14.85;;
72573;SDS011;60603;52.548;13.420;2024-01-06T02:25:27;47.33;;;18.45;;
72573;SDS011;60603;52.548;13.420;2024-01-06T02:27:54;38.47;;;17.42;;
72573;SDS011;60603;52.548;13.420;2024-01-06T02:30:21;44.63;;;18.73;;
72573;SDS011;60603;52.548;13.420;2024-01-06T02:32:48;38.00;;;14.73;;
72573;SDS011;60603;52.548;13.420;2024-01-06T02:35:15;38.25;;;15.00;;
72573;SDS011;60603;52.548;13.420;2024-01-06T02:37:42;36.45;;;14.57;;
72573;SDS011;60603;52.548;13.420;2024-01-06T02:40:10;36.83;;;14.05;;
72573;SDS011;60603;52.548;13.420;2024-01-06T02:42:37;36.80;;;16.02;;
72573;SDS011;60603;52.548;13.420;2024-01-06T02:45:04;38.03;;;16.27;;
72573;SDS011;60603;52.548;13.420;2024-01-06T02:47:33;39.70;;;15.00;;
72573;SDS011;60603;52.548;13.420;2024-01-06T02:50:00;41.53;;;15.98;;
72573;SDS011;60603;52.548;13.420;2024-01-06T02:52:27;35.22;;;14.65;;
72573;SDS011;60603;52.548;13.420;2024-01-06T02:54:54;42.15;;;16.52;;
72573;SDS011;60603;52.548;13.420;2024-01-06T02:57:21;39.30;;;16.15;;
72573;SDS011;60603;52.548;13.420;2024-01-06T02:59:47;38.63;;;15.43;;
72573;SDS011;60603;52.548;13.420;2024-01-06T03:02:15;38.70;;;16.08;;
72573;SDS011;60603;52.548;13.420;2024-01-06T03:04:41;34.78;;;14.85;;
72573;SDS011;60603;52.548;13.420;2024-01-06T03:07:08;37.83;;;15.68;;
72573;SDS011;60603;52.548;13.420;2024-01-06T03:09:35;42.72;;;16.17;;
72573;SDS011;60603;52.548;13.420;2024-01-06T03:12:02;35.30;;;15.98;;
72573;SDS011;60603;52.548;13.420;2024-01-06T03:14:29;39.25;;;15.52;;
72573;SDS011;60603;52.548;13.420;2024-01-06T03:16:56;35.33;;;16.83;;
72573;SDS011;60603;52.548;13.420;2024-01-06T03:19:24;40.97;;;17.45;;
72573;SDS011;60603;52.548;13.420;2024-01-06T03:21:54;41.33;;;17.23;;
72573;SDS011;60603;52.548;13.420;2024-01-06T03:24:21;34.45;;;15.60;;
72573;SDS011;60603;52.548;13.420;2024-01-06T03:26:49;45.10;;;16.60;;
72573;SDS011;60603;52.548;13.420;2024-01-06T03:29:16;39.38;;;16.70;;
72573;SDS011;60603;52.548;13.420;2024-01-06T03:31:44;35.58;;;14.93;;
72573;SDS011;60603;52.548;13.420;2024-01-06T03:34:11;34.75;;;15.30;;
72573;SDS011;60603;52.548;13.420;2024-01-06T03:36:38;37.05;;;16.00;;
72573;SDS011;60603;52.548;13.420;2024-01-06T03:39:06;38.70;;;15.85;;
72573;SDS011;60603;52.548;13.420;2024-01-06T03:41:33;39.03;;;15.90;;
72573;SDS011;60603;52.548;13.420;2024-01-06T03:44:00;41.50;;;18.25;;
72573;SDS011;60603;52.548;13.420;2024-01-06T03:46:27;43.00;;;16.45;;
72573;SDS011;60603;52.548;13.420;2024-01-06T03:48:54;47.03;;;17.42;;
72573;SDS011;60603;52.548;13.420;2024-01-06T03:51:21;43.90;;;16.98;;
72573;SDS011;60603;52.548;13.420;2024-01-06T03:53:48;42.35;;;16.15;;
72573;SDS011;60603;52.548;13.420;2024-01-06T03:56:15;38.55;;;17.30;;
72573;SDS011;60603;52.548;13.420;2024-01-06T03:58:42;43.30;;;17.75;;
72573;SDS011;60603;52.548;13.420;2024-01-06T04:01:09;36.63;;;16.00;;
72573;SDS011;60603;52.548;13.420;2024-01-06T04:03:36;48.42;;;17.30;;
72573;SDS011;60603;52.548;13.420;2024-01-06T04:06:03;36.45;;;16.00;;
72573;SDS011;60603;52.548;13.420;2024-01-06T04:08:30;39.72;;;18.10;;
72573;SDS011;60603;52.548;13.420;2024-01-06T04:10:57;43.63;;;18.42;;
72573;SDS011;60603;52.548;13.420;2024-01-06T04:13:24;42.38;;;17.15;;
72573;SDS011;60603;52.548;13.420;2024-01-06T04:15:52;41.67;;;17.48;;
72573;SDS011;60603;52.548;13.420;2024-01-06T04:18:19;39.38;;;17.15;;
72573;SDS011;60603;52.548;13.420;2024-01-06T04:20:46;35.92;;;15.45;;
72573;SDS011;60603;52.548;13.420;2024-01-06T04:23:12;39.00;;;15.93;;
72573;SDS011;60603;52.548;13.420;2024-01-06T04:25:40;44.60;;;18.27;;
72573;SDS011;60603;52.548;13.420;2024-01-06T04:28:06;38.55;;;17.38;;
72573;SDS011;60603;52.548;13.420;2024-01-06T04:30:33;45.53;;;19.30;;
72573;SDS011;60603;52.548;13.420;2024-01-06T04:33:00;40.05;;;17.75;;
72573;SDS011;60603;52.548;13.420;2024-01-06T04:35:27;46.25;;;17.15;;
72573;SDS011;60603;52.548;13.420;2024-01-06T04:37:54;42.33;;;17.25;;
72573;SDS011;60603;52.548;13.420;2024-01-06T04:40:21;38.55;;;17.23;;
72573;SDS011;60603;52.548;13.420;2024-01-06T04:42:48;44.17;;;17.08;;
72573;SDS011;60603;52.548;13.420;2024-01-06T04:45:15;43.83;;;17.58;;
72573;SDS011;60603;52.548;13.420;2024-01-06T04:47:42;43.47;;;17.52;;
72573;SDS011;60603;52.548;13.420;2024-01-06T04:50:09;43.83;;;17.42;;
72573;SDS011;60603;52.548;13.420;2024-01-06T04:52:35;45.10;;;18.73;;
72573;SDS011;60603;52.548;13.420;2024-01-06T04:55:02;45.60;;;18.27;;
72573;SDS011;60603;52.548;13.420;2024-01-06T04:57:31;38.83;;;18.65;;
72573;SDS011;60603;52.548;13.420;2024-01-06T04:59:58;50.72;;;19.83;;
72573;SDS011;60603;52.548;13.420;2024-01-06T05:02:26;42.10;;;17.85;;
72573;SDS011;60603;52.548;13.420;2024-01-06T05:04:53;45.38;;;19.75;;
72573;SDS011;60603;52.548;13.420;2024-01-06T05:07:20;47.22;;;19.15;;
72573;SDS011;60603;52.548;13.420;2024-01-06T05:09:46;51.78;;;19.92;;
72573;SDS011;60603;52.548;13.420;2024-01-06T05:12:13;45.88;;;19.23;;
72573;SDS011;60603;52.548;13.420;2024-01-06T05:14:40;42.55;;;18.10;;
72573;SDS011;60603;52.548;13.420;2024-01-06T05:17:07;40.65;;;19.30;;
72573;SDS011;60603;52.548;13.420;2024-01-06T05:19:35;47.80;;;18.83;;
72573;SDS011;60603;52.548;13.420;2024-01-06T05:22:02;47.20;;;19.13;;
72573;SDS011;60603;52.548;13.420;2024-01-06T05:24:29;43.25;;;18.20;;
72573;SDS011;60603;52.548;13.420;2024-01-06T05:26:56;50.13;;;19.77;;
72573;SDS011;60603;52.548;13.420;2024-01-06T05:29:23;46.35;;;18.88;;
72573;SDS011;60603;52.548;13.420;2024-01-06T05:31:52;48.50;;;18.45;;
72573;SDS011;60603;52.548;13.420;2024-01-06T05:34:19;46.00;;;19.30;;
72573;SDS011;60603;52.548;13.420;2024-01-06T05:36:46;48.28;;;19.10;;
72573;SDS011;60603;52.548;13.420;2024-01-06T05:39:13;36.60;;;16.15;;
72573;SDS011;60603;52.548;13.420;2024-01-06T05:41:40;51.30;;;20.33;;
72573;SDS011;60603;52.548;13.420;2024-01-06T05:44:07;48.63;;;19.52;;
72573;SDS011;60603;52.548;13.420;2024-01-06T05:46:34;52.22;;;20.42;;
72573;SDS011;60603;52.548;13.420;2024-01-06T05:49:01;56.45;;;20.45;;
72573;SDS011;60603;52.548;13.420;2024-01-06T05:51:28;47.08;;;19.17;;
72573;SDS011;60603;52.548;13.420;2024-01-06T05:53:55;36.50;;;15.98;;
72573;SDS011;60603;52.548;13.420;2024-01-06T05:56:23;48.75;;;18.42;;
72573;SDS011;60603;52.548;13.420;2024-01-06T05:58:52;46.58;;;19.85;;
72573;SDS011;60603;52.548;13.420;2024-01-06T06:01:19;51.53;;;20.30;;
72573;SDS011;60603;52.548;13.420;2024-01-06T06:03:49;48.05;;;17.75;;
72573;SDS011;60603;52.548;13.420;2024-01-06T06:06:17;42.00;;;17.20;;
72573;SDS011;60603;52.548;13.420;2024-01-06T06:08:45;46.65;;;16.38;;
72573;SDS011;60603;52.548;13.420;2024-01-06T06:11:12;38.70;;;17.30;;
72573;SDS011;60603;52.548;13.420;2024-01-06T06:13:40;47.40;;;19.75;;
72573;SDS011;60603;52.548;13.420;2024-01-06T06:16:08;48.40;;;17.05;;
72573;SDS011;60603;52.548;13.420;2024-01-06T06:18:36;51.90;;;19.15;;
72573;SDS011;60603;52.548;13.420;2024-01-06T06:21:03;50.72;;;21.67;;
72573;SDS011;60603;52.548;13.420;2024-01-06T06:23:31;52.25;;;20.35;;
72573;SDS011;60603;52.548;13.420;2024-01-06T06:25:58;44.92;;;17.63;;
72573;SDS011;60603;52.548;13.420;2024-01-06T06:28:26;47.50;;;19.38;;
72573;SDS011;60603;52.548;13.420;2024-01-06T06:30:52;44.53;;;18.50;;
72573;SDS011;60603;52.548;13.420;2024-01-06T06:33:20;44.47;;;17.73;;
72573;SDS011;60603;52.548;13.420;2024-01-06T06:35:47;47.55;;;17.80;;
72573;SDS011;60603;52.548;13.420;2024-01-06T06:38:14;45.90;;;18.55;;
72573;SDS011;60603;52.548;13.420;2024-01-06T06:40:41;46.42;;;18.08;;
72573;SDS011;60603;52.548;13.420;2024-01-06T06:43:08;50.25;;;20.30;;
72573;SDS011;60603;52.548;13.420;2024-01-06T06:45:35;42.28;;;18.50;;
72573;SDS011;60603;52.548;13.420;2024-01-06T06:48:02;42.88;;;15.55;;
72573;SDS011;60603;52.548;13.420;2024-01-06T06:50:29;42.42;;;18.25;;
72573;SDS011;60603;52.548;13.420;2024-01-06T06:52:56;43.55;;;15.10;;
72573;SDS011;60603;52.548;13.420;2024-01-06T06:55:23;50.55;;;19.40;;
72573;SDS011;60603;52.548;13.420;2024-01-06T06:57:50;53.00;;;17.92;;
72573;SDS011;60603;52.548;13.420;2024-01-06T07:00:17;45.08;;;17.35;;
72573;SDS011;60603;52.548;13.420;2024-01-06T07:02:44;45.78;;;18.17;;
72573;SDS011;60603;52.548;13.420;2024-01-06T07:05:11;51.05;;;18.15;;
72573;SDS011;60603;52.548;13.420;2024-01-06T07:07:38;36.22;;;14.27;;
72573;SDS011;60603;52.548;13.420;2024-01-06T07:10:05;46.88;;;17.45;;
72573;SDS011;60603;52.548;13.420;2024-01-06T07:12:33;50.28;;;19.67;;
72573;SDS011;60603;52.548;13.420;2024-01-06T07:15:00;56.95;;;19.95;;
72573;SDS011;60603;52.548;13.420;2024-01-06T07:17:28;50.45;;;19.73;;
72573;SDS011;60603;52.548;13.420;2024-01-06T07:19:55;46.17;;;16.85;;
72573;SDS011;60603;52.548;13.420;2024-01-06T07:22:22;52.03;;;20.05;;
72573;SDS011;60603;52.548;13.420;2024-01-06T07:24:49;46.67;;;19.48;;
72573;SDS011;60603;52.548;13.420;2024-01-06T07:27:16;48.33;;;17.58;;
72573;SDS011;60603;52.548;13.420;2024-01-06T07:29:43;44.75;;;16.55;;
72573;SDS011;60603;52.548;13.420;2024-01-06T07:32:10;40.15;;;18.10;;
72573;SDS011;60603;52.548;13.420;2024-01-06T07:34:36;57.67;;;20.00;;
72573;SDS011;60603;52.548;13.420;2024-01-06T07:37:04;54.55;;;19.77;;
72573;SDS011;60603;52.548;13.420;2024-01-06T07:39:32;47.03;;;19.00;;
72573;SDS011;60603;52.548;13.420;2024-01-06T07:42:00;63.30;;;22.23;;
72573;SDS011;60603;52.548;13.420;2024-01-06T07:44:26;51.40;;;18.00;;
72573;SDS011;60603;52.548;13.420;2024-01-06T07:46:53;59.35;;;18.95;;
72573;SDS011;60603;52.548;13.420;2024-01-06T07:49:20;49.67;;;18.17;;
72573;SDS011;60603;52.548;13.420;2024-01-06T07:51:48;50.88;;;19.50;;
72573;SDS011;60603;52.548;13.420;2024-01-06T07:54:14;52.42;;;18.15;;
72573;SDS011;60603;52.548;13.420;2024-01-06T07:56:41;58.67;;;21.08;;
72573;SDS011;60603;52.548;13.420;2024-01-06T07:59:10;51.70;;;20.02;;
72573;SDS011;60603;52.548;13.420;2024-01-06T08:01:37;50.78;;;18.48;;
72573;SDS011;60603;52.548;13.420;2024-01-06T08:04:04;46.75;;;17.92;;
72573;SDS011;60603;52.548;13.420;2024-01-06T08:06:31;49.20;;;19.35;;
72573;SDS011;60603;52.548;13.420;2024-01-06T08:08:58;52.45;;;19.10;;
72573;SDS011;60603;52.548;13.420;2024-01-06T08:11:24;50.53;;;18.33;;
72573;SDS011;60603;52.548;13.420;2024-01-06T08:13:51;43.28;;;17.02;;
72573;SDS011;60603;52.548;13.420;2024-01-06T08:16:18;47.83;;;20.38;;
72573;SDS011;60603;52.548;13.420;2024-01-06T08:18:45;54.28;;;20.23;;
72573;SDS011;60603;52.548;13.420;2024-01-06T08:21:12;60.03;;;22.23;;
72573;SDS011;60603;52.548;13.420;2024-01-06T08:23:39;59.72;;;20.95;;
72573;SDS011;60603;52.548;13.420;2024-01-06T08:26:06;41.80;;;18.33;;
72573;SDS011;60603;52.548;13.420;2024-01-06T08:28:37;52.63;;;20.13;;
72573;SDS011;60603;52.548;13.420;2024-01-06T08:31:04;52.67;;;20.00;;
72573;SDS011;60603;52.548;13.420;2024-01-06T08:33:31;50.20;;;19.42;;
72573;SDS011;60603;52.548;13.420;2024-01-06T08:35:59;59.03;;;21.27;;
72573;SDS011;60603;52.548;13.420;2024-01-06T08:38:26;50.80;;;18.17;;
72573;SDS011;60603;52.548;13.420;2024-01-06T08:40:53;62.10;;;20.08;;
72573;SDS011;60603;52.548;13.420;2024-01-06T08:43:20;52.15;;;20.30;;
72573;SDS011;60603;52.548;13.420;2024-01-06T08:45:47;53.40;;;21.02;;
72573;SDS011;60603;52.548;13.420;2024-01-06T08:48:14;48.70;;;17.88;;
72573;SDS011;60603;52.548;13.420;2024-01-06T08:50:42;45.90;;;18.30;;
72573;SDS011;60603;52.548;13.420;2024-01-06T08:53:09;43.55;;;18.88;;
72573;SDS011;60603;52.548;13.420;2024-01-06T08:55:36;52.97;;;19.40;;
72573;SDS011;60603;52.548;13.420;2024-01-06T08:58:03;40.40;;;18.58;;
72573;SDS011;60603;52.548;13.420;2024-01-06T09:00:31;47.60;;;19.75;;
72573;SDS011;60603;52.548;13.420;2024-01-06T09:02:58;47.95;;;18.52;;
72573;SDS011;60603;52.548;13.420;2024-01-06T09:05:25;38.33;;;15.38;;
72573;SDS011;60603;52.548;13.420;2024-01-06T09:07:52;48.55;;;18.15;;
72573;SDS011;60603;52.548;13.420;2024-01-06T09:10:21;55.70;;;18.17;;
72573;SDS011;60603;52.548;13.420;2024-01-06T09:12:48;47.55;;;19.77;;
72573;SDS011;60603;52.548;13.420;2024-01-06T09:15:15;50.25;;;19.77;;
72573;SDS011;60603;52.548;13.420;2024-01-06T09:17:42;50.50;;;20.13;;
72573;SDS011;60603;52.548;13.420;2024-01-06T09:20:09;40.25;;;17.83;;
72573;SDS011;60603;52.548;13.420;2024-01-06T09:22:36;53.33;;;20.23;;
72573;SDS011;60603;52.548;13.420;2024-01-06T09:25:03;45.78;;;19.85;;
72573;SDS011;60603;52.548;13.420;2024-01-06T09:27:30;46.45;;;17.50;;
72573;SDS011;60603;52.548;13.420;2024-01-06T09:29:57;47.85;;;19.90;;
72573;SDS011;60603;52.548;13.420;2024-01-06T09:32:24;47.83;;;18.73;;
72573;SDS011;60603;52.548;13.420;2024-01-06T09:34:51;39.20;;;16.02;;
72573;SDS011;60603;52.548;13.420;2024-01-06T09:37:18;48.85;;;19.55;;
72573;SDS011;60603;52.548;13.420;2024-01-06T09:39:45;46.67;;;19.33;;
72573;SDS011;60603;52.548;13.420;2024-01-06T09:42:12;45.05;;;17.23;;
72573;SDS011;60603;52.548;13.420;2024-01-06T09:44:45;46.65;;;18.58;;
72573;SDS011;60603;52.548;13.420;2024-01-06T09:47:12;43.10;;;17.38;;
72573;SDS011;60603;52.548;13.420;2024-01-06T09:49:39;44.30;;;18.90;;
72573;SDS011;60603;52.548;13.420;2024-01-06T09:52:10;46.47;;;19.88;;
72573;SDS011;60603;52.548;13.420;2024-01-06T09:54:44;44.40;;;20.23;;
72573;SDS011;60603;52.548;13.420;2024-01-06T09:57:13;42.03;;;17.45;;
72573;SDS011;60603;52.548;13.420;2024-01-06T09:59:41;46.58;;;20.13;;
72573;SDS011;60603;52.548;13.420;2024-01-06T10:02:08;41.70;;;18.58;;
72573;SDS011;60603;52.548;13.420;2024-01-06T10:04:36;45.72;;;18.50;;
72573;SDS011;60603;52.548;13.420;2024-01-06T10:07:03;44.28;;;19.17;;
72573;SDS011;60603;52.548;13.420;2024-01-06T10:09:30;42.47;;;18.05;;
72573;SDS011;60603;52.548;13.420;2024-01-06T10:11:57;45.95;;;18.10;;
72573;SDS011;60603;52.548;13.420;2024-01-06T10:14:25;46.08;;;18.55;;
72573;SDS011;60603;52.548;13.420;2024-01-06T10:16:52;33.45;;;16.88;;
72573;SDS011;60603;52.548;13.420;2024-01-06T10:19:19;44.55;;;18.92;;
72573;SDS011;60603;52.548;13.420;2024-01-06T10:21:47;37.10;;;15.25;;
72573;SDS011;60603;52.548;13.420;2024-01-06T10:24:14;39.35;;;16.05;;
72573;SDS011;60603;52.548;13.420;2024-01-06T10:26:41;41.70;;;16.88;;
72573;SDS011;60603;52.548;13.420;2024-01-06T10:29:08;37.10;;;17.45;;
72573;SDS011;60603;52.548;13.420;2024-01-06T10:31:35;33.55;;;14.75;;
72573;SDS011;60603;52.548;13.420;2024-01-06T10:34:02;37.83;;;17.10;;
72573;SDS011;60603;52.548;13.420;2024-01-06T10:36:30;38.17;;;16.33;;
72573;SDS011;60603;52.548;13.420;2024-01-06T10:38:58;32.80;;;14.50;;
72573;SDS011;60603;52.548;13.420;2024-01-06T10:41:25;44.15;;;17.77;;
72573;SDS011;60603;52.548;13.420;2024-01-06T10:43:52;39.75;;;17.42;;
72573;SDS011;60603;52.548;13.420;2024-01-06T10:46:21;43.45;;;17.30;;
72573;SDS011;60603;52.548;13.420;2024-01-06T10:48:49;39.85;;;17.30;;
72573;SDS011;60603;52.548;13.420;2024-01-06T10:51:17;34.78;;;14.30;;
72573;SDS011;60603;52.548;13.420;2024-01-06T10:53:44;38.70;;;16.52;;
72573;SDS011;60603;52.548;13.420;2024-01-06T10:56:11;46.05;;;17.02;;
72573;SDS011;60603;52.548;13.420;2024-01-06T10:58:44;40.15;;;16.63;;
72573;SDS011;60603;52.548;13.420;2024-01-06T11:01:13;54.50;;;17.27;;
72573;SDS011;60603;52.548;13.420;2024-01-06T11:03:46;38.53;;;17.60;;
72573;SDS011;60603;52.548;13.420;2024-01-06T11:06:14;43.15;;;17.50;;
72573;SDS011;60603;52.548;13.420;2024-01-06T11:08:53;29.63;;;13.30;;
72573;SDS011;60603;52.548;13.420;2024-01-06T11:11:26;28.77;;;12.25;;
72573;SDS011;60603;52.548;13.420;2024-01-06T11:13:58;35.88;;;16.80;;
72573;SDS011;60603;52.548;13.420;2024-01-06T11:16:44;38.67;;;16.50;;
72573;SDS011;60603;52.548;13.420;2024-01-06T11:25:06;39.80;;;16.77;;
72573;SDS011;60603;52.548;13.420;2024-01-06T11:27:34;33.13;;;15.15;;
72573;SDS011;60603;52.548;13.420;2024-01-06T11:30:04;28.73;;;13.77;;
72573;SDS011;60603;52.548;13.420;2024-01-06T11:32:38;39.80;;;17.85;;
72573;SDS011;60603;52.548;13.420;2024-01-06T11:35:09;39.03;;;17.65;;
72573;SDS011;60603;52.548;13.420;2024-01-06T11:45:27;38.28;;;17.63;;
72573;SDS011;60603;52.548;13.420;2024-01-06T11:47:56;36.92;;;18.58;;
72573;SDS011;60603;52.548;13.420;2024-01-06T11:50:26;41.20;;;19.17;;
72573;SDS011;60603;52.548;13.420;2024-01-06T11:52:53;39.17;;;17.77;;
72573;SDS011;60603;52.548;13.420;2024-01-06T11:55:21;32.13;;;15.77;;
72573;SDS011;60603;52.548;13.420;2024-01-06T11:57:48;32.60;;;15.48;;
72573;SDS011;60603;52.548;13.420;2024-01-06T12:00:17;37.50;;;17.00;;
72573;SDS011;60603;52.548;13.420;2024-01-06T12:02:44;32.83;;;15.25;;
72573;SDS011;60603;52.548;13.420;2024-01-06T12:05:15;33.40;;;15.93;;
72573;SDS011;60603;52.548;13.420;2024-01-06T12:08:05;41.13;;;17.83;;
72573;SDS011;60603;52.548;13.420;2024-01-06T12:10:34;38.33;;;17.58;;
72573;SDS011;60603;52.548;13.420;2024-01-06T12:13:05;32.97;;;13.07;;
72573;SDS011;60603;52.548;13.420;2024-01-06T12:15:36;35.53;;;16.02;;
72573;SDS011;60603;52.548;13.420;2024-01-06T12:18:06;37.28;;;16.88;;
72573;SDS011;60603;52.548;13.420;2024-01-06T12:20:33;32.05;;;14.95;;
72573;SDS011;60603;52.548;13.420;2024-01-06T12:23:00;28.75;;;12.57;;
72573;SDS011;60603;52.548;13.420;2024-01-06T12:25:28;28.35;;;11.05;;
72573;SDS011;60603;52.548;13.420;2024-01-06T12:28:02;32.08;;;14.63;;
72573;SDS011;60603;52.548;13.420;2024-01-06T12:30:29;37.70;;;15.88;;
72573;SDS011;60603;52.548;13.420;2024-01-06T12:32:58;32.30;;;15.45;;
72573;SDS011;60603;52.548;13.420;2024-01-06T12:35:25;38.67;;;15.88;;
72573;SDS011;60603;52.548;13.420;2024-01-06T12:37:52;35.20;;;15.73;;
72573;SDS011;60603;52.548;13.420;2024-01-06T12:40:20;34.35;;;15.52;;
72573;SDS011;60603;52.548;13.420;2024-01-06T12:42:48;34.75;;;15.57;;
72573;SDS011;60603;52.548;13.420;2024-01-06T12:45:15;35.97;;;15.00;;
72573;SDS011;60603;52.548;13.420;2024-01-06T12:47:43;41.15;;;16.80;;
72573;SDS011;60603;52.548;13.420;2024-01-06T12:50:10;31.65;;;14.95;;
72573;SDS011;60603;52.548;13.420;2024-01-06T12:52:37;37.65;;;16.20;;
72573;SDS011;60603;52.548;13.420;2024-01-06T12:55:06;33.35;;;15.43;;
72573;SDS011;60603;52.548;13.420;2024-01-06T12:57:34;30.35;;;15.00;;
72573;SDS011;60603;52.548;13.420;2024-01-06T13:00:01;33.75;;;15.48;;
72573;SDS011;60603;52.548;13.420;2024-01-06T13:02:28;31.20;;;15.35;;
72573;SDS011;60603;52.548;13.420;2024-01-06T13:04:56;29.95;;;13.60;;
72573;SDS011;60603;52.548;13.420;2024-01-06T13:07:24;30.02;;;13.93;;
72573;SDS011;60603;52.548;13.420;2024-01-06T13:09:51;30.13;;;13.13;;
72573;SDS011;60603;52.548;13.420;2024-01-06T13:12:18;28.13;;;13.70;;
72573;SDS011;60603;52.548;13.420;2024-01-06T13:14:45;28.65;;;13.23;;
72573;SDS011;60603;52.548;13.420;2024-01-06T13:17:15;28.58;;;13.35;;
72573;SDS011;60603;52.548;13.420;2024-01-06T13:19:43;30.10;;;11.68;;
72573;SDS011;60603;52.548;13.420;2024-01-06T13:22:10;27.67;;;12.95;;
72573;SDS011;60603;52.548;13.420;2024-01-06T13:24:37;33.25;;;15.57;;
72573;SDS011;60603;52.548;13.420;2024-01-06T13:27:04;31.40;;;13.35;;
72573;SDS011;60603;52.548;13.420;2024-01-06T13:29:32;24.67;;;13.15;;
72573;SDS011;60603;52.548;13.420;2024-01-06T13:31:58;29.35;;;13.73;;
72573;SDS011;60603;52.548;13.420;2024-01-06T13:34:26;27.33;;;12.98;;
72573;SDS011;60603;52.548;13.420;2024-01-06T13:36:53;25.85;;;11.98;;
72573;SDS011;60603;52.548;13.420;2024-01-06T13:39:23;30.08;;;13.00;;
72573;SDS011;60603;52.548;13.420;2024-01-06T13:41:50;28.23;;;12.85;;
72573;SDS011;60603;52.548;13.420;2024-01-06T13:44:17;30.40;;;12.20;;
72573;SDS011;60603;52.548;13.420;2024-01-06T13:46:44;27.08;;;13.40;;
72573;SDS011;60603;52.548;13.420;2024-01-06T13:49:11;29.50;;;11.80;;
72573;SDS011;60603;52.548;13.420;2024-01-06T13:51:39;30.25;;;13.57;;
72573;SDS011;60603;52.548;13.420;2024-01-06T13:54:07;29.15;;;13.05;;
72573;SDS011;60603;52.548;13.420;2024-01-06T13:56:34;30.48;;;14.85;;
72573;SDS011;60603;52.548;13.420;2024-01-06T13:59:01;29.48;;;14.00;;
72573;SDS011;60603;52.548;13.420;2024-01-06T14:01:28;23.45;;;10.93;;
72573;SDS011;60603;52.548;13.420;2024-01-06T14:03:55;25.73;;;11.18;;
72573;SDS011;60603;52.548;13.420;2024-01-06T14:06:25;32.30;;;12.57;;
72573;SDS011;60603;52.548;13.420;2024-01-06T14:08:57;18.65;;;9.10;;
72573;SDS011;60603;52.548;13.420;2024-01-06T14:11:24;26.17;;;11.50;;
72573;SDS011;60603;52.548;13.420;2024-01-06T14:13:52;28.23;;;12.73;;
72573;SDS011;60603;52.548;13.420;2024-01-06T14:16:19;25.88;;;11.60;;
72573;SDS011;60603;52.548;13.420;2024-01-06T14:18:47;23.63;;;11.57;;
72573;SDS011;60603;52.548;13.420;2024-01-06T14:21:15;28.38;;;12.25;;
72573;SDS011;60603;52.548;13.420;2024-01-06T14:23:46;21.88;;;10.20;;